createdAt,value
2022-09-05T00:02:04.929Z,100.00
2022-09-05T00:04:40.606Z,100.00
2022-09-05T00:07:59.702Z,100.00
2022-09-05T00:11:41.254Z,100.00
2022-09-05T00:14:00.792Z,100.00
2022-09-05T00:17:12.694Z,100.00
2022-09-05T00:24:26.945Z,100.00
2022-09-05T00:24:29.812Z,100.00
2022-09-05T00:26:49.936Z,100.00
2022-09-05T00:31:50.833Z,100.00
2022-09-05T00:33:28.656Z,100.00
2022-09-05T00:36:17.283Z,100.00
2022-09-05T00:38:57.734Z,100.00
2022-09-05T00:41:25.930Z,100.00
2022-09-05T00:43:57.279Z,100.00
2022-09-05T00:46:33.676Z,100.00
2022-09-05T00:49:53.654Z,100.00
2022-09-05T00:52:35.728Z,100.00
2022-09-05T00:55:39.110Z,100.00
2022-09-05T00:58:37.409Z,100.00
2022-09-05T01:01:26.561Z,100.00
2022-09-05T01:04:45.836Z,100.00
2022-09-05T01:07:27.498Z,100.00
2022-09-05T01:10:38.754Z,100.00
2022-09-05T01:13:33.032Z,100.00
2022-09-05T01:16:23.578Z,100.00
2022-09-05T01:19:29.792Z,100.00
2022-09-05T01:22:34.310Z,100.00
2022-09-05T01:25:27.348Z,100.00
2022-09-05T01:29:14.072Z,100.00
2022-09-05T01:31:52.415Z,100.00
2022-09-05T01:34:31.838Z,100.00
2022-09-05T01:37:46.306Z,100.00
2022-09-05T01:40:29.658Z,100.00
2022-09-05T01:44:19.697Z,100.00
2022-09-05T01:47:29.470Z,100.00
2022-09-05T01:50:28.253Z,100.00
2022-09-05T01:53:45.920Z,100.00
2022-09-05T01:56:41.416Z,100.00
2022-09-05T01:59:37.499Z,100.00
2022-09-05T02:02:32.598Z,100.00
2022-09-05T02:06:02.071Z,100.00
2022-09-05T02:09:01.011Z,100.00
2022-09-05T02:11:48.508Z,100.00
2022-09-05T02:14:57.490Z,100.00
2022-09-05T02:17:55.135Z,100.00
2022-09-05T02:20:35.947Z,100.00
2022-09-05T02:23:24.762Z,100.00
2022-09-05T02:26:26.870Z,100.00
2022-09-05T02:29:05.604Z,100.00
2022-09-05T02:31:44.296Z,100.00
2022-09-05T02:34:26.141Z,100.00
2022-09-05T02:38:33.082Z,100.00
2022-09-05T02:45:05.938Z,100.00
2022-09-05T02:45:19.503Z,100.00
2022-09-05T02:46:36.720Z,100.00
2022-09-05T02:52:21.204Z,100.00
2022-09-05T02:57:25.031Z,100.00
2022-09-05T02:57:35.236Z,100.00
2022-09-05T02:59:09.163Z,100.00
2022-09-05T03:02:25.947Z,100.00
2022-09-05T03:05:25.772Z,100.00
2022-09-05T03:08:22.633Z,100.00
2022-09-05T03:11:02.150Z,100.00
2022-09-05T03:14:46.905Z,100.00
2022-09-05T03:17:38.624Z,100.00
2022-09-05T03:20:42.444Z,100.00
2022-09-05T03:23:56.048Z,100.00
2022-09-05T03:27:07.580Z,100.00
2022-09-05T03:30:02.135Z,100.00
2022-09-05T03:32:49.581Z,100.00
2022-09-05T03:35:49.886Z,100.00
2022-09-05T03:39:12.782Z,100.00
2022-09-05T03:42:15.205Z,100.00
2022-09-05T03:44:48.632Z,100.00
2022-09-05T03:47:48.872Z,100.00
2022-09-05T03:56:58.261Z,100.00
2022-09-05T03:57:20.406Z,100.00
2022-09-05T03:58:16.692Z,100.00
2022-09-05T04:01:11.038Z,100.00
2022-09-05T04:08:19.248Z,100.00
2022-09-05T04:08:26.185Z,100.00
2022-09-05T04:09:59.285Z,100.00
2022-09-05T04:13:03.869Z,100.00
2022-09-05T04:15:42.101Z,100.00
2022-09-05T04:18:32.924Z,100.00
2022-09-05T04:21:20.365Z,100.00
2022-09-05T04:24:29.227Z,100.00
2022-09-05T04:27:27.792Z,100.00
2022-09-05T04:30:31.210Z,100.00
2022-09-05T04:33:11.483Z,100.00
2022-09-05T04:36:17.788Z,100.00
2022-09-05T04:38:46.738Z,100.00
2022-09-05T04:41:16.582Z,100.00
2022-09-05T04:43:49.615Z,100.00
2022-09-05T04:46:25.220Z,100.00
2022-09-05T04:49:07.091Z,100.00
2022-09-05T04:52:26.880Z,100.00
2022-09-05T04:55:20.162Z,100.00
2022-09-05T04:58:55.557Z,100.00
2022-09-05T05:06:08.228Z,100.00
2022-09-05T05:06:14.276Z,100.00
2022-09-05T05:07:23.858Z,100.00
2022-09-05T05:10:37.596Z,100.00
2022-09-05T05:17:54.384Z,100.00
2022-09-05T05:18:12.955Z,100.00
2022-09-05T05:19:18.610Z,100.00
2022-09-05T05:22:03.762Z,100.00
2022-09-05T05:24:36.517Z,100.00
2022-09-05T05:27:21.440Z,100.00
2022-09-05T05:30:04.690Z,100.00
2022-09-05T05:32:46.040Z,100.00
2022-09-05T05:35:19.200Z,100.00
2022-09-05T05:38:13.279Z,100.00
2022-09-05T05:41:05.634Z,100.00
2022-09-05T05:43:45.524Z,100.00
2022-09-05T05:46:29.282Z,100.00
2022-09-05T05:49:28.711Z,100.00
2022-09-05T05:52:30.880Z,100.00
2022-09-05T05:55:14.055Z,100.00
2022-09-05T05:58:22.040Z,100.00
2022-09-05T06:00:55.023Z,100.00
2022-09-05T06:04:24.391Z,100.00
2022-09-05T06:07:14.939Z,100.00
2022-09-05T06:14:52.811Z,100.00
2022-09-05T06:15:00.801Z,100.00
2022-09-05T06:16:45.774Z,100.00
2022-09-05T06:19:53.187Z,100.00
2022-09-05T06:22:49.492Z,100.00
2022-09-05T06:25:37.867Z,100.00
2022-09-05T06:28:35.654Z,100.00
2022-09-05T06:31:34.780Z,100.00
2022-09-05T06:35:00.095Z,100.00
2022-09-05T06:37:56.337Z,100.00
2022-09-05T06:40:42.224Z,100.00
2022-09-05T06:44:15.290Z,100.00
2022-09-05T06:47:05.793Z,100.00
2022-09-05T06:50:26.910Z,100.00
2022-09-05T06:53:39.214Z,100.00
2022-09-05T06:56:26.617Z,100.00
2022-09-05T06:59:38.103Z,100.00
2022-09-05T07:02:27.288Z,100.00
2022-09-05T07:05:38.948Z,100.00
2022-09-05T07:08:34.144Z,100.00
2022-09-05T07:11:15.928Z,100.00
2022-09-05T07:14:13.665Z,100.00
2022-09-05T07:17:10.002Z,100.00
2022-09-05T07:19:59.220Z,100.00
2022-09-05T07:23:47.810Z,100.00
2022-09-05T07:25:56.045Z,100.00
2022-09-05T07:28:29.606Z,100.00
2022-09-05T07:31:04.247Z,100.00
2022-09-05T07:33:32.102Z,100.00
2022-09-05T07:36:23.661Z,100.00
2022-09-05T07:39:12.225Z,100.00
2022-09-05T07:41:52.467Z,100.00
2022-09-05T07:44:59.002Z,100.00
2022-09-05T07:47:35.502Z,100.00
2022-09-05T07:53:25.887Z,100.00
2022-09-05T07:57:06.155Z,100.00
2022-09-05T07:57:09.517Z,100.00
2022-09-05T07:58:51.674Z,100.00
2022-09-05T08:01:22.533Z,100.00
2022-09-05T08:03:56.260Z,100.00
2022-09-05T08:07:11.889Z,100.00
2022-09-05T08:10:05.968Z,100.00
2022-09-05T08:12:16.327Z,100.00
2022-09-05T08:15:14.185Z,100.00
2022-09-05T08:17:57.492Z,100.00
2022-09-05T08:20:58.983Z,100.00
2022-09-05T08:23:40.837Z,100.00
2022-09-05T08:26:37.617Z,100.00
2022-09-05T08:29:16.812Z,100.00
2022-09-05T08:32:10.871Z,100.00
2022-09-05T08:34:56.715Z,100.00
2022-09-05T08:37:27.005Z,100.00
2022-09-05T08:40:10.553Z,100.00
2022-09-05T08:46:36.615Z,100.00
2022-09-05T08:46:43.403Z,100.00
2022-09-05T08:49:32.374Z,100.00
2022-09-05T08:52:28.836Z,100.00
2022-09-05T08:55:37.062Z,100.00
2022-09-05T08:58:17.721Z,100.00
2022-09-05T09:01:00.274Z,100.00
2022-09-05T09:04:11.451Z,100.00
2022-09-05T09:07:27.856Z,100.00
2022-09-05T09:10:08.655Z,100.00
2022-09-05T09:12:56.662Z,100.00
2022-09-05T09:16:04.740Z,100.00
2022-09-05T09:19:02.140Z,100.00
2022-09-05T09:21:58.249Z,100.00
2022-09-05T09:24:41.461Z,100.00
2022-09-05T09:28:22.610Z,100.00
2022-09-05T09:30:35.749Z,100.00
2022-09-05T09:33:06.204Z,100.00
2022-09-05T09:35:44.713Z,100.00
2022-09-05T09:38:48.810Z,100.00
2022-09-05T09:41:33.973Z,100.00
2022-09-05T09:44:25.189Z,100.00
2022-09-05T09:46:53.336Z,100.00
2022-09-05T09:50:38.117Z,100.00
2022-09-05T09:53:59.923Z,100.00
2022-09-05T09:57:03.577Z,100.00
2022-09-05T10:00:21.176Z,100.00
2022-09-05T10:04:30.988Z,100.00
2022-09-05T10:10:44.656Z,100.00
2022-09-05T10:10:52.851Z,100.00
2022-09-05T10:13:20.435Z,100.00
2022-09-05T10:16:26.166Z,100.00
2022-09-05T10:22:44.185Z,100.00
2022-09-05T10:25:40.408Z,92.65
2022-09-05T10:28:40.148Z,92.96
2022-09-05T10:31:55.568Z,87.72
2022-09-05T10:35:17.697Z,89.63
2022-09-05T10:37:12.568Z,84.97
2022-09-05T10:39:50.976Z,85.09
2022-09-05T10:42:39.896Z,86.02
2022-09-05T10:45:39.533Z,75.24
2022-09-05T10:48:16.566Z,100.00
2022-09-05T10:51:07.700Z,96.42
2022-09-05T10:53:50.588Z,81.50
2022-09-05T10:56:26.145Z,74.75
2022-09-05T11:02:16.413Z,60.84
2022-09-05T11:02:27.304Z,74.60
2022-09-05T11:05:31.005Z,69.29
2022-09-05T11:08:43.198Z,68.49
2022-09-05T11:11:28.401Z,57.22
2022-09-05T11:14:27.039Z,70.13
2022-09-05T11:17:14.063Z,63.98
2022-09-05T11:20:14.417Z,64.97
2022-09-05T11:22:47.729Z,53.86
2022-09-05T11:25:39.662Z,53.68
2022-09-05T11:28:19.046Z,53.58
2022-09-05T11:30:53.488Z,47.56
2022-09-05T11:39:47.068Z,51.19
2022-09-05T11:40:02.803Z,54.62
2022-09-05T11:41:50.936Z,59.80
2022-09-05T11:44:44.840Z,62.85
2022-09-05T11:47:28.111Z,69.28
2022-09-05T11:51:03.676Z,56.11
2022-09-05T11:54:17.399Z,49.72
2022-09-05T11:57:32.908Z,59.63
2022-09-05T12:00:31.213Z,65.23
2022-09-05T12:03:58.261Z,77.01
2022-09-05T12:06:56.442Z,81.46
2022-09-05T12:10:43.593Z,52.86
2022-09-05T12:13:46.281Z,47.58
2022-09-05T12:16:49.436Z,44.82
2022-09-05T12:19:51.996Z,44.51
2022-09-05T12:22:36.415Z,45.83
2022-09-05T12:27:36.693Z,45.26
2022-09-05T12:29:28.176Z,45.07
2022-09-05T12:32:19.661Z,49.57
2022-09-05T12:36:07.376Z,40.88
2022-09-05T12:40:19.743Z,38.36
2022-09-05T12:41:37.435Z,45.66
2022-09-05T12:44:38.836Z,49.80
2022-09-05T12:46:10.926Z,49.08
2022-09-05T12:49:12.854Z,43.99
2022-09-05T12:52:02.428Z,35.46
2022-09-05T12:54:57.060Z,38.32
2022-09-05T13:00:45.263Z,51.66
2022-09-05T13:03:04.084Z,46.63
2022-09-05T13:03:53.418Z,38.80
2022-09-05T13:06:47.048Z,32.75
2022-09-05T13:09:16.560Z,34.06
2022-09-05T13:14:50.820Z,33.05
2022-09-05T13:15:23.145Z,33.71
2022-09-05T13:18:12.957Z,32.45
2022-09-05T13:20:51.510Z,28.77
2022-09-05T13:24:12.237Z,30.48
2022-09-05T13:26:50.177Z,31.54
2022-09-05T13:29:29.482Z,31.24
2022-09-05T13:36:43.430Z,29.57
2022-09-05T13:38:12.701Z,29.04
2022-09-05T13:38:56.094Z,27.88
2022-09-05T13:41:46.450Z,28.16
2022-09-05T13:44:26.354Z,31.42
2022-09-05T13:47:29.676Z,36.24
2022-09-05T13:50:28.712Z,37.75
2022-09-05T13:53:18.942Z,44.44
2022-09-05T13:55:56.748Z,48.46
2022-09-05T13:58:51.081Z,35.16
2022-09-05T14:02:19.913Z,46.54
2022-09-05T14:05:05.849Z,36.21
2022-09-05T14:08:20.621Z,42.70
2022-09-05T14:11:08.581Z,49.30
2022-09-05T14:14:09.277Z,34.69
2022-09-05T14:16:53.899Z,37.84
2022-09-05T14:19:43.274Z,44.22
2022-09-05T14:22:28.144Z,61.57
2022-09-05T14:24:58.255Z,48.59
2022-09-05T14:27:32.466Z,57.52
2022-09-05T14:30:38.456Z,41.95
2022-09-05T14:37:41.494Z,60.79
2022-09-05T14:37:46.137Z,48.41
2022-09-05T14:39:47.855Z,72.38
2022-09-05T14:42:51.025Z,42.93
2022-09-05T14:45:42.775Z,39.04
2022-09-05T14:48:43.515Z,39.69
2022-09-05T14:51:39.243Z,58.91
2022-09-05T15:02:38.942Z,42.34
2022-09-05T15:02:50.549Z,61.32
2022-09-05T15:03:04.992Z,70.19
2022-09-05T15:05:43.138Z,59.38
2022-09-05T15:09:58.634Z,60.81
2022-09-05T15:12:18.701Z,74.29
2022-09-05T15:14:12.160Z,74.66
2022-09-05T15:16:45.632Z,64.96
2022-09-05T15:20:08.740Z,68.50
2022-09-05T15:22:41.894Z,52.65
2022-09-05T15:25:19.942Z,41.54
2022-09-05T15:27:49.803Z,39.59
2022-09-05T15:30:36.219Z,40.91
2022-09-05T15:33:25.823Z,41.66
2022-09-05T15:35:54.908Z,49.22
2022-09-05T15:38:30.115Z,58.68
2022-09-05T15:41:13.414Z,51.83
2022-09-05T15:43:59.720Z,43.14
2022-09-05T15:46:59.628Z,44.91
2022-09-05T15:49:42.977Z,64.80
2022-09-05T15:52:27.314Z,51.59
2022-09-05T15:54:59.696Z,70.93
2022-09-05T15:57:31.783Z,47.15
2022-09-05T16:00:07.914Z,67.14
2022-09-05T16:02:55.440Z,60.51
2022-09-05T16:10:31.447Z,40.44
2022-09-05T16:10:40.128Z,43.61
2022-09-05T16:12:09.058Z,38.54
2022-09-05T16:14:39.508Z,42.24
2022-09-05T16:23:15.297Z,48.15
2022-09-05T16:23:23.412Z,54.25
2022-09-05T16:24:11.496Z,54.99
2022-09-05T16:26:47.724Z,43.24
2022-09-05T16:29:27.018Z,42.27
2022-09-05T16:32:22.826Z,63.32
2022-09-05T16:35:07.448Z,59.95
2022-09-05T16:37:49.136Z,47.42
2022-09-05T16:40:29.635Z,44.07
2022-09-05T16:43:20.603Z,51.35
2022-09-05T16:46:08.571Z,60.75
2022-09-05T16:49:12.225Z,56.70
2022-09-05T16:51:50.386Z,55.78
2022-09-05T16:54:48.730Z,58.04
2022-09-05T16:57:22.681Z,52.22
2022-09-05T16:59:50.401Z,51.81
2022-09-05T17:02:58.046Z,53.33
2022-09-05T17:05:39.683Z,54.05
2022-09-05T17:08:19.375Z,51.85
2022-09-05T17:11:03.592Z,47.98
2022-09-05T17:13:48.820Z,51.08
2022-09-05T17:16:47.386Z,51.23
2022-09-05T17:19:22.222Z,51.45
2022-09-05T17:24:59.603Z,51.12
2022-09-05T17:29:17.140Z,49.07
2022-09-05T17:29:38.123Z,53.78
2022-09-05T17:33:43.454Z,56.38
2022-09-05T17:36:41.349Z,60.03
2022-09-05T17:39:49.263Z,52.52
2022-09-05T17:42:36.309Z,51.11
2022-09-05T17:45:29.926Z,71.47
2022-09-05T17:47:57.997Z,58.07
2022-09-05T17:50:33.118Z,60.82
2022-09-05T17:53:26.799Z,69.24
2022-09-05T17:55:54.904Z,79.66
2022-09-05T17:58:28.321Z,64.47
2022-09-05T18:01:27.158Z,66.25
2022-09-05T18:04:16.611Z,62.88
2022-09-05T18:06:52.682Z,77.51
2022-09-05T18:09:40.090Z,88.39
2022-09-05T18:13:11.621Z,63.63
2022-09-05T18:15:31.765Z,61.77
2022-09-05T18:18:08.614Z,84.82
2022-09-05T18:24:07.974Z,94.10
2022-09-05T18:26:44.986Z,95.26
2022-09-05T18:32:45.636Z,100.00
2022-09-05T18:35:37.106Z,100.00
2022-09-05T18:38:12.777Z,100.00
2022-09-05T18:41:09.165Z,100.00
2022-09-05T18:44:12.042Z,81.93
2022-09-05T18:46:49.439Z,100.00
2022-09-05T18:50:21.509Z,100.00
2022-09-05T18:52:28.934Z,100.00
2022-09-05T18:56:09.230Z,100.00
2022-09-05T18:58:09.374Z,100.00
2022-09-05T19:00:44.466Z,100.00
2022-09-05T19:03:19.045Z,100.00
2022-09-05T19:06:35.142Z,100.00
2022-09-05T19:08:55.575Z,100.00
2022-09-05T19:11:57.828Z,100.00
2022-09-05T19:14:55.660Z,100.00
2022-09-05T19:17:34.607Z,100.00
2022-09-05T19:20:30.990Z,100.00
2022-09-05T19:23:11.272Z,100.00
2022-09-05T19:25:45.612Z,100.00
2022-09-05T19:36:48.994Z,100.00
2022-09-05T19:36:54.346Z,100.00
2022-09-05T19:37:25.552Z,100.00
2022-09-05T19:37:30.212Z,100.00
2022-09-05T19:47:27.074Z,100.00
2022-09-05T19:47:42.611Z,100.00
2022-09-05T19:47:50.282Z,100.00
2022-09-05T19:48:35.242Z,100.00
2022-09-05T19:51:17.569Z,100.00
2022-09-05T19:54:04.867Z,100.00
2022-09-05T19:56:44.883Z,100.00
2022-09-05T19:59:24.094Z,100.00
2022-09-05T20:01:53.090Z,100.00
2022-09-05T20:04:21.427Z,100.00
2022-09-05T20:06:50.433Z,100.00
2022-09-05T20:09:24.109Z,100.00
2022-09-05T20:11:59.856Z,100.00
2022-09-05T20:14:36.760Z,100.00
2022-09-05T20:17:30.076Z,100.00
2022-09-05T20:20:22.448Z,100.00
2022-09-05T20:22:52.735Z,100.00
2022-09-05T20:25:39.939Z,100.00
2022-09-05T20:28:17.580Z,100.00
2022-09-05T20:30:54.121Z,100.00
2022-09-05T20:33:36.942Z,100.00
2022-09-05T20:43:10.102Z,100.00
2022-09-05T20:43:19.345Z,100.00
2022-09-05T20:43:23.808Z,100.00
2022-09-05T20:44:50.366Z,100.00
2022-09-05T20:54:08.451Z,100.00
2022-09-05T20:54:19.246Z,100.00
2022-09-05T20:54:19.415Z,100.00
2022-09-05T20:56:22.503Z,100.00
2022-09-05T20:58:51.290Z,100.00
2022-09-05T21:01:23.395Z,100.00
2022-09-05T21:04:04.067Z,100.00
2022-09-05T21:06:34.770Z,100.00
2022-09-05T21:09:30.057Z,100.00
2022-09-05T21:11:59.891Z,100.00
2022-09-05T21:14:29.694Z,100.00
2022-09-05T21:17:15.134Z,100.00
2022-09-05T21:19:53.672Z,100.00
2022-09-05T21:22:21.293Z,100.00
2022-09-05T21:25:08.590Z,100.00
2022-09-05T21:27:36.008Z,100.00
2022-09-05T21:30:23.069Z,100.00
2022-09-05T21:33:01.031Z,100.00
2022-09-05T21:35:35.212Z,100.00
2022-09-05T21:38:02.850Z,100.00
2022-09-05T21:40:29.976Z,100.00
2022-09-05T21:47:44.286Z,100.00
2022-09-05T21:47:44.955Z,100.00
2022-09-05T21:48:36.843Z,100.00
2022-09-05T21:51:12.964Z,100.00
2022-09-05T21:59:22.514Z,100.00
2022-09-05T21:59:30.182Z,100.00
2022-09-05T21:59:46.128Z,100.00
2022-09-05T22:02:16.394Z,100.00
2022-09-05T22:04:43.692Z,100.00
2022-09-05T22:07:20.294Z,100.00
2022-09-05T22:09:59.132Z,100.00
2022-09-05T22:12:31.390Z,100.00
2022-09-05T22:15:05.957Z,100.00
2022-09-05T22:17:47.199Z,100.00
2022-09-05T22:20:17.445Z,100.00
2022-09-05T22:22:45.280Z,100.00
2022-09-05T22:25:29.118Z,100.00
2022-09-05T22:28:19.409Z,100.00
2022-09-05T22:30:46.449Z,100.00
2022-09-05T22:33:13.554Z,100.00
2022-09-05T22:35:41.100Z,100.00
2022-09-05T22:38:16.421Z,100.00
2022-09-05T22:40:46.404Z,100.00
2022-09-05T22:43:14.856Z,100.00
2022-09-05T22:45:41.913Z,100.00
2022-09-05T22:48:14.545Z,100.00
2022-09-05T22:50:42.846Z,100.00
2022-09-05T22:53:10.485Z,100.00
2022-09-05T22:55:41.354Z,100.00
2022-09-05T22:58:12.460Z,100.00
2022-09-05T23:00:39.513Z,100.00
2022-09-05T23:03:07.824Z,100.00
2022-09-05T23:05:35.226Z,100.00
2022-09-05T23:08:04.174Z,100.00
2022-09-05T23:10:32.060Z,100.00
2022-09-05T23:12:59.444Z,100.00
2022-09-05T23:15:26.713Z,100.00
2022-09-05T23:17:59.513Z,100.00
2022-09-05T23:20:29.824Z,100.00
2022-09-05T23:22:57.144Z,100.00
2022-09-05T23:25:24.708Z,100.00
2022-09-05T23:27:51.897Z,100.00
2022-09-05T23:30:18.987Z,100.00
2022-09-05T23:32:51.440Z,100.00
2022-09-05T23:35:19.375Z,99.86
2022-09-05T23:37:48.320Z,97.96
2022-09-05T23:40:20.059Z,100.00
2022-09-05T23:42:55.605Z,100.00
2022-09-05T23:45:24.076Z,100.00
2022-09-05T23:47:51.926Z,100.00
2022-09-05T23:50:19.818Z,100.00
2022-09-05T23:52:47.724Z,100.00
2022-09-05T23:55:18.055Z,100.00
2022-09-05T23:57:46.279Z,100.00
